Time;durP1;ratioP1;P1;durP2;ratioP2;P2;SDS_P1;SDS_P2;PMS_P1;PMS_P2;Temp;Humidity;BMP_temperature;BMP_pressure;BME280_temperature;BME280_humidity;BME280_pressure;Samples;Min_cycle;Max_cycle;Signal;HPM_P1;HPM_P2
2022/12/31 00:00:01;;;;;;;6.70;1.23;;;15.50;82.20;;;;;;4192063;28;20506;-59
2022/12/31 00:02:45;;;;;;;7.18;1.85;;;15.50;82.40;;;;;;4192236;28;20143;-59
2022/12/31 00:05:26;;;;;;;4.57;1.55;;;15.50;82.40;;;;;;4192182;28;20056;-60
2022/12/31 00:08:07;;;;;;;4.03;1.33;;;15.50;82.50;;;;;;4194792;28;20186;-60
2022/12/31 00:10:48;;;;;;;4.88;1.48;;;15.50;82.60;;;;;;4207984;28;20493;-60
2022/12/31 00:13:29;;;;;;;4.10;1.52;;;15.50;82.70;;;;;;4207846;28;20089;-60
2022/12/31 00:16:14;;;;;;;3.38;1.55;;;15.50;82.70;;;;;;4207724;28;20124;-59
2022/12/31 00:18:58;;;;;;;3.63;1.35;;;15.50;82.80;;;;;;4207680;28;20125;-60
2022/12/31 00:21:39;;;;;;;5.63;1.65;;;15.50;83.70;;;;;;4207143;28;20063;-60
2022/12/31 00:24:20;;;;;;;4.13;1.52;;;15.40;82.90;;;;;;4178550;28;20051;-59
2022/12/31 00:27:02;;;;;;;3.40;1.58;;;15.40;83.00;;;;;;4190482;28;20056;-59
2022/12/31 00:29:43;;;;;;;3.13;1.27;;;15.40;83.10;;;;;;4189930;28;20067;-59
2022/12/31 00:32:26;;;;;;;9.73;2.45;;;15.40;84.10;;;;;;4190326;28;20048;-60
2022/12/31 00:35:07;;;;;;;3.88;1.80;;;15.40;83.30;;;;;;4195068;28;20050;-59
2022/12/31 00:37:48;;;;;;;3.70;1.75;;;15.40;83.40;;;;;;4208060;28;20133;-59
2022/12/31 00:40:29;;;;;;;7.20;1.75;;;15.40;83.40;;;;;;4174847;28;20064;-60
2022/12/31 00:43:10;;;;;;;5.20;1.80;;;15.30;83.40;;;;;;4185471;28;20063;-60
2022/12/31 00:45:51;;;;;;;6.90;2.10;;;15.30;83.60;;;;;;4174930;28;20513;-60
2022/12/31 00:48:37;;;;;;;7.85;1.88;;;15.30;83.60;;;;;;4188416;28;20069;-60
2022/12/31 00:51:20;;;;;;;5.57;1.90;;;15.30;83.70;;;;;;4191135;28;20503;-60
2022/12/31 00:54:02;;;;;;;13.23;2.75;;;15.30;83.80;;;;;;4190917;28;20051;-60
2022/12/31 00:56:43;;;;;;;5.78;2.25;;;15.30;83.90;;;;;;4191629;28;20106;-60
2022/12/31 00:59:24;;;;;;;6.00;1.98;;;15.30;84.00;;;;;;4191419;28;20055;-60
2022/12/31 01:02:05;;;;;;;8.45;2.08;;;15.30;84.10;;;;;;4195458;28;20059;-60
2022/12/31 01:04:48;;;;;;;7.93;2.42;;;15.30;84.10;;;;;;4190305;28;20043;-60
2022/12/31 01:07:28;;;;;;;7.10;2.08;;;15.30;84.10;;;;;;4190094;28;20189;-66
2022/12/31 01:10:10;;;;;;;10.63;2.13;;;15.30;84.20;;;;;;4190695;28;20055;-66
2022/12/31 01:12:50;;;;;;;6.70;2.40;;;15.30;84.20;;;;;;4191235;28;20298;-59
2022/12/31 01:15:33;;;;;;;5.23;2.50;;;15.30;85.10;;;;;;4191347;28;20051;-59
2022/12/31 01:18:14;;;;;;;6.93;2.50;;;15.30;84.30;;;;;;4192149;28;20051;-59
2022/12/31 01:21:00;;;;;;;9.93;2.15;;;15.30;84.50;;;;;;4191075;28;20059;-59
2022/12/31 01:23:42;;;;;;;5.43;2.20;;;15.30;84.40;;;;;;4197448;28;20092;-59
2022/12/31 01:26:23;;;;;;;11.07;3.05;;;15.30;84.50;;;;;;4194869;28;20059;-59
2022/12/31 01:29:04;;;;;;;4.47;2.38;;;15.30;84.50;;;;;;4174152;28;20380;-59
2022/12/31 01:31:45;;;;;;;9.15;2.17;;;15.30;84.60;;;;;;4175121;28;20051;-59
2022/12/31 01:34:26;;;;;;;7.72;2.28;;;15.30;84.60;;;;;;4177510;28;20056;-60
2022/12/31 01:37:08;;;;;;;6.63;2.22;;;15.20;84.70;;;;;;4181283;28;20056;-60
2022/12/31 01:39:49;;;;;;;6.57;2.42;;;15.20;84.90;;;;;;4186309;28;20108;-60
2022/12/31 01:42:30;;;;;;;4.40;2.00;;;15.30;85.10;;;;;;4195319;28;20106;-60
2022/12/31 01:45:13;;;;;;;8.07;2.72;;;15.40;85.00;;;;;;4181041;28;20060;-60
2022/12/31 01:47:58;;;;;;;6.95;2.50;;;15.40;84.70;;;;;;4194150;28;20125;-60
2022/12/31 01:50:40;;;;;;;7.30;2.38;;;15.50;84.40;;;;;;4193990;28;20133;-61
2022/12/31 01:53:23;;;;;;;5.05;1.88;;;15.50;84.20;;;;;;4193900;28;20063;-60
2022/12/31 01:56:04;;;;;;;5.65;1.70;;;15.60;84.10;;;;;;4210727;28;20055;-60
2022/12/31 01:58:47;;;;;;;6.55;1.45;;;15.60;83.90;;;;;;4193741;28;20059;-60
2022/12/31 02:01:31;;;;;;;6.20;2.30;;;15.60;83.70;;;;;;4183385;28;20130;-60
2022/12/31 02:04:14;;;;;;;4.70;1.55;;;15.70;83.80;;;;;;4181309;28;20052;-60
2022/12/31 02:06:57;;;;;;;4.00;1.63;;;15.60;83.70;;;;;;4193816;28;20098;-60
2022/12/31 02:09:41;;;;;;;4.70;1.38;;;15.70;83.70;;;;;;4193485;28;20062;-60
2022/12/31 02:12:23;;;;;;;5.07;1.55;;;15.70;83.60;;;;;;4177060;28;20044;-59
2022/12/31 02:15:05;;;;;;;2.72;1.42;;;15.80;83.40;;;;;;4186742;28;20392;-59
2022/12/31 02:18:01;;;;;;;4.18;1.60;;;15.80;83.30;;;;;;4193946;28;20051;-59
2022/12/31 02:20:58;;;;;;;2.95;1.85;;;15.80;83.10;;;;;;4193061;28;20050;-59
2022/12/31 02:24:00;;;;;;;2.70;1.88;;;15.80;83.00;;;;;;4176500;28;20059;-60
2022/12/31 02:27:06;;;;;;;2.05;1.60;;;15.90;83.10;;;;;;4175719;28;20059;-61
2022/12/31 02:30:15;;;;;;;2.20;1.80;;;15.90;83.20;;;;;;4180476;28;20391;-60
2022/12/31 02:33:08;;;;;;;9.45;2.90;;;15.80;83.10;;;;;;4193256;28;20059;-60
2022/12/31 02:35:54;;;;;;;3.45;1.90;;;15.80;83.00;;;;;;4200062;28;20043;-61
2022/12/31 02:38:40;;;;;;;2.45;1.80;;;15.90;83.00;;;;;;4209599;28;20083;-60
2022/12/31 02:44:23;;;;;;;4.68;1.70;;;15.80;82.90;;;;;;4192028;28;20055;-60
2022/12/31 02:47:18;;;;;;;3.17;1.73;;;15.90;83.00;;;;;;4193197;28;20054;-60
2022/12/31 02:50:12;;;;;;;3.83;2.20;;;15.90;83.10;;;;;;4181449;28;20101;-60
2022/12/31 02:53:01;;;;;;;4.88;1.83;;;15.90;83.20;;;;;;4192958;28;20569;-60
2022/12/31 02:55:49;;;;;;;3.63;2.63;;;15.90;83.10;;;;;;4194703;28;20056;-60
2022/12/31 03:04:45;;;;;;;4.82;1.60;;;16.10;82.60;;;;;;4200994;28;20055;-61
2022/12/31 03:07:28;;;;;;;2.78;1.45;;;16.10;82.40;;;;;;4208767;28;20051;-61
2022/12/31 03:10:09;;;;;;;3.17;1.73;;;16.10;82.40;;;;;;4198343;28;20047;-61
2022/12/31 03:12:50;;;;;;;4.82;1.90;;;16.10;82.40;;;;;;4192717;28;20055;-60
2022/12/31 03:15:32;;;;;;;3.25;1.67;;;16.10;82.50;;;;;;4202331;28;20124;-61
2022/12/31 03:18:16;;;;;;;3.22;1.80;;;16.10;82.40;;;;;;4208772;28;20046;-61
2022/12/31 03:26:54;;;;;;;3.22;1.80;;;16.10;82.40;;;;;;4192174;28;20067;-60
2022/12/31 03:29:35;;;;;;;2.75;1.30;;;16.10;82.50;;;;;;4193599;28;20510;-60
2022/12/31 03:32:16;;;;;;;1.95;1.00;;;16.00;82.60;;;;;;4192879;28;20098;-60
2022/12/31 03:34:57;;;;;;;3.47;1.30;;;16.00;82.60;;;;;;4192331;28;20047;-60
2022/12/31 03:37:40;;;;;;;2.60;1.10;;;16.00;82.80;;;;;;4192422;28;20071;-60
2022/12/31 03:40:24;;;;;;;2.97;1.35;;;16.00;82.90;;;;;;4187194;28;20048;-60
2022/12/31 03:43:05;;;;;;;2.42;1.15;;;16.00;82.80;;;;;;4191356;28;20055;-60
2022/12/31 03:45:50;;;;;;;3.20;1.15;;;16.00;82.80;;;;;;4203589;28;20189;-60
2022/12/31 03:48:30;;;;;;;2.53;1.17;;;16.10;82.60;;;;;;4206545;28;20051;-60
2022/12/31 03:51:12;;;;;;;3.00;0.90;;;16.10;82.60;;;;;;4192109;28;20059;-61
2022/12/31 03:53:54;;;;;;;4.07;0.80;;;16.10;83.40;;;;;;4192041;28;20126;-61
2022/12/31 03:56:35;;;;;;;5.13;0.82;;;16.10;82.60;;;;;;4191949;28;20066;-60
2022/12/31 03:59:16;;;;;;;1.75;1.00;;;16.10;82.50;;;;;;4191978;28;20394;-61
2022/12/31 04:01:57;;;;;;;1.10;0.68;;;16.20;82.40;;;;;;4197956;28;20051;-60
2022/12/31 04:04:38;;;;;;;2.38;0.80;;;16.20;83.10;;;;;;4191825;28;20101;-60
2022/12/31 04:07:19;;;;;;;2.55;1.00;;;16.20;82.10;;;;;;4191483;28;20501;-60
2022/12/31 04:10:01;;;;;;;1.73;0.85;;;16.20;82.10;;;;;;4191522;28;20494;-60
2022/12/31 04:12:43;;;;;;;1.33;0.82;;;16.20;82.10;;;;;;4191689;28;20066;-60
2022/12/31 04:15:24;;;;;;;2.33;0.52;;;16.20;82.30;;;;;;4191700;28;20051;-60
2022/12/31 04:18:05;;;;;;;1.65;0.90;;;16.20;82.20;;;;;;4192026;28;20499;-61
2022/12/31 04:20:46;;;;;;;1.23;0.52;;;16.20;82.10;;;;;;4191035;28;20420;-60
2022/12/31 04:23:27;;;;;;;1.38;0.50;;;16.20;82.00;;;;;;4191394;28;20059;-60
2022/12/31 04:26:11;;;;;;;2.63;0.70;;;16.30;82.00;;;;;;4191763;28;20399;-60
2022/12/31 04:28:52;;;;;;;2.00;0.68;;;16.20;82.00;;;;;;4191400;28;20125;-60
2022/12/31 04:31:33;;;;;;;1.02;0.65;;;16.20;82.90;;;;;;4191477;28;20387;-60
2022/12/31 04:34:14;;;;;;;3.40;0.70;;;16.20;82.10;;;;;;4192478;28;20047;-60
2022/12/31 04:36:56;;;;;;;1.58;0.88;;;16.20;82.20;;;;;;4191266;28;20052;-60
2022/12/31 04:39:37;;;;;;;1.52;0.60;;;16.20;82.30;;;;;;4191525;28;20162;-60
2022/12/31 04:42:19;;;;;;;1.42;0.55;;;16.10;82.40;;;;;;4191327;28;20107;-60
2022/12/31 04:45:00;;;;;;;1.20;0.63;;;16.10;82.60;;;;;;4191520;28;20059;-59
2022/12/31 04:47:41;;;;;;;3.58;0.80;;;16.10;82.80;;;;;;4191248;28;20450;-60
2022/12/31 04:50:21;;;;;;;3.85;0.60;;;16.10;83.60;;;;;;4191928;28;20051;-60
2022/12/31 04:53:02;;;;;;;4.22;0.75;;;16.10;82.70;;;;;;4187294;28;20052;-60
2022/12/31 04:55:45;;;;;;;2.08;0.80;;;16.20;82.60;;;;;;4204464;28;20059;-60
2022/12/31 04:58:27;;;;;;;1.35;0.55;;;16.20;82.50;;;;;;4207982;28;20051;-61
2022/12/31 05:01:08;;;;;;;1.70;0.88;;;16.20;82.60;;;;;;4208074;28;20186;-60
2022/12/31 05:03:50;;;;;;;;;;;16.20;82.60;;;;;;4196080;28;20067;-60
2022/12/31 05:06:30;;;;;;;2.22;0.50;;;16.20;82.40;;;;;;4195648;28;20425;-59
2022/12/31 05:09:11;;;;;;;1.23;0.40;;;16.30;82.40;;;;;;4178254;28;20507;-59
2022/12/31 05:11:52;;;;;;;3.30;0.70;;;16.30;82.30;;;;;;4177858;28;20064;-60
2022/12/31 05:14:34;;;;;;;3.83;1.02;;;16.30;82.30;;;;;;4178029;28;20044;-59
2022/12/31 05:17:15;;;;;;;1.98;0.80;;;16.30;82.20;;;;;;4177939;28;20114;-59
2022/12/31 05:19:56;;;;;;;1.67;0.80;;;16.30;82.00;;;;;;4177889;28;20060;-60
2022/12/31 05:22:37;;;;;;;2.55;0.80;;;16.40;81.90;;;;;;4194298;28;20086;-60
2022/12/31 05:25:18;;;;;;;1.35;0.70;;;16.40;82.80;;;;;;4194352;28;20067;-59
2022/12/31 05:27:59;;;;;;;1.33;0.95;;;16.40;82.00;;;;;;4193722;28;20178;-61
2022/12/31 05:30:41;;;;;;;1.17;0.60;;;16.40;82.00;;;;;;4194063;28;20074;-60
2022/12/31 05:33:22;;;;;;;1.00;0.88;;;16.30;81.90;;;;;;4181754;28;20047;-60
2022/12/31 05:36:04;;;;;;;2.83;0.82;;;16.30;81.90;;;;;;4197285;28;20054;-60
2022/12/31 05:38:45;;;;;;;3.13;0.70;;;16.30;82.00;;;;;;4177653;28;20052;-59
2022/12/31 05:41:26;;;;;;;3.28;2.92;;;16.30;82.00;;;;;;4165469;28;20052;-60
2022/12/31 05:44:07;;;;;;;1.70;0.88;;;16.30;82.10;;;;;;4161892;28;20060;-60
2022/12/31 05:46:49;;;;;;;1.40;0.90;;;16.30;82.30;;;;;;4191846;28;20054;-61
2022/12/31 05:49:29;;;;;;;3.05;0.90;;;16.30;82.50;;;;;;4202979;28;20047;-60
2022/12/31 05:52:11;;;;;;;1.25;0.80;;;16.30;82.60;;;;;;4193634;28;20067;-60
2022/12/31 05:54:52;;;;;;;1.48;0.70;;;16.30;82.60;;;;;;4194202;28;20052;-60
2022/12/31 05:57:32;;;;;;;1.77;0.90;;;16.30;82.50;;;;;;4194583;28;20055;-60
2022/12/31 06:00:14;;;;;;;2.15;1.08;;;16.30;82.30;;;;;;4194147;28;20331;-60
2022/12/31 06:02:57;;;;;;;2.53;1.02;;;16.30;82.30;;;;;;4177352;28;20052;-60
2022/12/31 06:05:41;;;;;;;1.70;0.80;;;16.30;82.40;;;;;;4177289;28;20514;-60
2022/12/31 06:08:22;;;;;;;1.77;0.88;;;16.40;82.40;;;;;;4180401;28;20234;-59
2022/12/31 06:11:03;;;;;;;1.17;0.90;;;16.40;82.20;;;;;;4193561;28;20439;-60
2022/12/31 06:13:44;;;;;;;1.98;0.98;;;16.40;83.00;;;;;;4193356;28;20109;-60
2022/12/31 06:16:25;;;;;;;1.60;0.60;;;16.40;82.10;;;;;;4193446;28;20167;-61
2022/12/31 06:19:08;;;;;;;2.00;0.68;;;16.40;82.20;;;;;;4175564;28;20052;-60
2022/12/31 06:21:49;;;;;;;2.33;0.73;;;16.40;82.10;;;;;;4187395;28;20062;-60
2022/12/31 06:24:30;;;;;;;3.40;0.47;;;16.40;82.00;;;;;;4183064;28;20815;-60
2022/12/31 06:27:10;;;;;;;0.73;0.60;;;16.50;82.10;;;;;;4193626;28;20057;-60
2022/12/31 06:29:52;;;;;;;1.88;0.40;;;16.50;81.90;;;;;;4194156;28;20541;-60
2022/12/31 06:32:33;;;;;;;1.73;0.38;;;16.40;82.00;;;;;;4192035;28;20051;-65
2022/12/31 06:35:19;;;;;;;1.65;0.60;;;16.40;82.10;;;;;;4179118;28;20125;-65
2022/12/31 06:38:05;;;;;;;0.68;0.40;;;16.40;82.50;;;;;;4175675;28;20047;-65
2022/12/31 06:40:45;;;;;;;1.17;0.50;;;16.40;82.70;;;;;;4184591;28;20391;-67
2022/12/31 06:43:27;;;;;;;1.02;0.50;;;16.40;82.90;;;;;;4186966;28;20125;-65
2022/12/31 06:46:10;;;;;;;0.80;0.63;;;16.50;83.60;;;;;;4199683;28;20141;-64
2022/12/31 06:48:52;;;;;;;0.55;0.30;;;16.50;82.50;;;;;;4208702;28;20496;-65
2022/12/31 06:51:34;;;;;;;;;;;16.50;82.30;;;;;;4207607;28;20613;-65
2022/12/31 06:54:18;;;;;;;0.90;0.40;;;16.50;82.10;;;;;;4202795;28;19927;-65
2022/12/31 06:57:00;;;;;;;0.93;0.50;;;16.50;82.10;;;;;;4197804;28;20121;-66
2022/12/31 06:59:42;;;;;;;1.92;0.68;;;16.50;82.20;;;;;;4192540;28;20061;-66
2022/12/31 07:02:30;;;;;;;;;;;16.50;82.30;;;;;;4185973;28;20056;-65
2022/12/31 07:05:24;;;;;;;1.30;1.20;;;16.40;82.30;;;;;;4193029;28;19931;-60
2022/12/31 07:08:26;;;;;;;2.20;1.00;;;16.40;82.50;;;;;;4185607;28;20104;-64
2022/12/31 07:11:15;;;;;;;1.17;0.75;;;16.30;82.80;;;;;;4176297;28;20446;-60
2022/12/31 07:14:19;;;;;;;1.00;0.80;;;16.30;83.00;;;;;;4179815;28;20071;-60
2022/12/31 07:17:12;;;;;;;0.70;0.52;;;16.20;83.20;;;;;;4191111;28;20182;-60
2022/12/31 07:20:00;;;;;;;1.17;0.65;;;16.20;83.40;;;;;;4181433;28;20074;-65
2022/12/31 07:22:41;;;;;;;2.00;0.88;;;16.10;84.50;;;;;;4181325;28;20059;-65
2022/12/31 07:25:24;;;;;;;;;;;16.10;83.80;;;;;;4193006;28;20147;-65
2022/12/31 07:28:20;;;;;;;0.60;0.60;;;16.10;84.00;;;;;;4191548;28;19943;-66
2022/12/31 07:31:13;;;;;;;0.93;0.63;;;16.00;84.10;;;;;;4196855;28;20089;-64
2022/12/31 07:33:59;;;;;;;1.17;0.98;;;16.00;84.40;;;;;;4207506;28;20422;-65
2022/12/31 07:36:58;;;;;;;1.55;0.80;;;15.90;84.40;;;;;;4213157;28;20172;-65
2022/12/31 07:39:45;;;;;;;1.25;0.57;;;15.90;84.70;;;;;;4196380;28;20089;-65
2022/12/31 07:42:34;;;;;;;1.05;0.65;;;15.90;85.10;;;;;;4208869;28;20059;-65
2022/12/31 07:45:20;;;;;;;3.80;0.60;;;15.90;85.60;;;;;;4201750;28;20533;-66
2022/12/31 07:48:02;;;;;;;2.25;0.70;;;16.00;86.00;;;;;;4192162;28;20051;-65
2022/12/31 07:50:43;;;;;;;3.83;1.05;;;16.00;86.20;;;;;;4192698;28;20056;-65
2022/12/31 07:53:25;;;;;;;2.90;1.05;;;16.10;86.40;;;;;;4192286;28;20050;-64
2022/12/31 07:56:08;;;;;;;2.05;0.50;;;16.10;86.50;;;;;;4192105;28;20507;-65
2022/12/31 07:59:08;;;;;;;0.98;0.70;;;16.20;86.50;;;;;;4192789;28;20113;-65
2022/12/31 08:01:58;;;;;;;0.60;0.60;;;16.20;86.30;;;;;;4192973;28;20055;-64
2022/12/31 08:04:47;;;;;;;4.75;1.00;;;16.30;86.10;;;;;;4192260;28;20490;-64
2022/12/31 08:07:36;;;;;;;2.55;1.00;;;16.30;85.90;;;;;;4191763;28;20102;-64
2022/12/31 08:10:26;;;;;;;1.35;1.00;;;16.30;85.70;;;;;;4191944;28;20048;-64
2022/12/31 08:13:11;;;;;;;3.15;1.10;;;16.30;85.60;;;;;;4191917;28;20094;-65
2022/12/31 08:15:54;;;;;;;5.15;1.75;;;16.30;85.60;;;;;;4192737;28;20070;-66
2022/12/31 08:18:35;;;;;;;4.53;2.08;;;16.30;85.30;;;;;;4189885;28;20062;-64
2022/12/31 08:21:40;;;;;;;2.92;1.50;;;16.30;85.20;;;;;;4199068;28;20055;-65
2022/12/31 08:24:30;;;;;;;0.68;0.50;;;16.30;85.20;;;;;;4191493;28;20416;-66
2022/12/31 08:27:22;;;;;;;1.90;0.50;;;16.40;85.00;;;;;;4199198;28;20435;-65
2022/12/31 08:30:08;;;;;;;0.50;0.50;;;16.40;84.70;;;;;;4205211;28;20043;-64
2022/12/31 08:33:03;;;;;;;0.50;0.40;;;16.50;84.50;;;;;;4191214;28;20406;-65
2022/12/31 08:35:59;;;;;;;0.85;0.50;;;16.50;84.30;;;;;;4199673;28;20489;-65
2022/12/31 08:38:47;;;;;;;1.13;0.85;;;16.50;84.10;;;;;;4193697;28;20089;-67
2022/12/31 08:41:33;;;;;;;0.85;0.73;;;16.50;84.10;;;;;;4190799;28;20411;-64
2022/12/31 08:44:32;;;;;;;0.73;0.70;;;16.50;84.20;;;;;;4180125;28;20071;-64
2022/12/31 08:47:24;;;;;;;0.60;0.60;;;16.40;84.30;;;;;;4183894;28;20439;-64
2022/12/31 08:50:14;;;;;;;1.13;0.50;;;16.40;84.30;;;;;;4175586;28;20183;-64
2022/12/31 08:52:56;;;;;;;0.55;0.40;;;16.40;84.50;;;;;;4176039;28;20171;-64
2022/12/31 08:55:37;;;;;;;0.90;0.90;;;16.30;84.60;;;;;;4178668;28;20125;-64
2022/12/31 08:58:32;;;;;;;0.80;0.80;;;16.30;84.90;;;;;;4177136;28;20052;-66
2022/12/31 09:01:17;;;;;;;1.10;0.90;;;16.20;85.00;;;;;;4183034;28;20119;-64
2022/12/31 09:04:12;;;;;;;3.15;2.95;;;16.20;85.20;;;;;;4177751;28;20056;-64
2022/12/31 09:06:59;;;;;;;1.10;1.10;;;16.10;85.40;;;;;;4177303;28;20089;-64
2022/12/31 09:09:50;;;;;;;2.17;2.08;;;16.10;85.70;;;;;;4175798;28;20055;-64
2022/12/31 09:12:37;;;;;;;4.88;4.47;;;16.00;85.80;;;;;;4182267;28;20138;-64
2022/12/31 09:15:24;;;;;;;2.10;1.90;;;16.00;86.00;;;;;;4168434;28;20086;-64
2022/12/31 09:18:07;;;;;;;1.95;1.80;;;16.00;86.10;;;;;;4179049;28;20511;-64
2022/12/31 09:20:49;;;;;;;6.78;6.05;;;15.90;86.30;;;;;;4176948;28;20060;-65
2022/12/31 09:23:32;;;;;;;2.35;2.20;;;15.90;86.50;;;;;;4179279;28;20056;-64
2022/12/31 09:26:28;;;;;;;2.55;2.42;;;15.90;86.60;;;;;;4177594;28;20803;-64
2022/12/31 09:29:30;;;;;;;0.95;0.95;;;15.80;86.80;;;;;;4176664;28;20048;-64
2022/12/31 09:32:20;;;;;;;2.38;2.25;;;15.90;87.20;;;;;;4178010;28;20095;-64
2022/12/31 09:35:10;;;;;;;1.42;1.17;;;15.90;87.20;;;;;;4178043;28;20076;-64
2022/12/31 09:37:55;;;;;;;0.90;0.90;;;16.00;87.00;;;;;;4176519;28;20052;-65
2022/12/31 09:40:50;;;;;;;0.70;0.70;;;16.00;86.80;;;;;;4184999;28;20105;-64
2022/12/31 09:44:10;;;;;;;0.82;0.82;;;16.10;86.60;;;;;;4182289;28;20051;-66
2022/12/31 09:47:36;;;;;;;2.22;1.42;;;16.10;86.50;;;;;;4176323;28;20498;-64
2022/12/31 09:50:49;;;;;;;3.63;2.70;;;16.10;86.40;;;;;;4173420;28;20090;-64
2022/12/31 09:53:41;;;;;;;1.90;1.60;;;16.10;86.40;;;;;;4183578;28;20056;-65
2022/12/31 09:56:29;;;;;;;0.75;0.75;;;16.10;86.40;;;;;;4179915;28;20063;-63
2022/12/31 09:59:17;;;;;;;1.20;0.50;;;16.10;86.60;;;;;;4177698;28;20059;-64
2022/12/31 10:02:11;;;;;;;1.23;1.20;;;16.10;86.80;;;;;;4175416;28;20048;-61
2022/12/31 10:05:03;;;;;;;1.70;1.05;;;16.00;86.90;;;;;;4176519;28;20384;-60
2022/12/31 10:07:55;;;;;;;2.10;1.55;;;16.00;87.00;;;;;;4180703;28;20724;-62
2022/12/31 10:10:46;;;;;;;1.98;1.10;;;16.00;87.20;;;;;;4188659;28;20055;-61
2022/12/31 10:13:42;;;;;;;1.65;1.30;;;16.00;87.40;;;;;;4182988;28;20469;-61
2022/12/31 10:16:43;;;;;;;2.67;2.45;;;16.00;87.60;;;;;;4189511;28;20060;-61
2022/12/31 10:19:42;;;;;;;0.95;0.77;;;16.10;87.50;;;;;;4180022;28;20071;-63
2022/12/31 10:22:42;;;;;;;1.48;0.70;;;16.20;87.00;;;;;;4181605;28;20864;-63
2022/12/31 10:25:53;;;;;;;4.18;1.45;;;16.40;86.40;;;;;;4176439;28;20131;-63
2022/12/31 10:28:46;;;;;;;1.75;1.45;;;16.60;85.80;;;;;;4180843;28;20055;-64
2022/12/31 10:31:39;;;;;;;3.70;1.20;;;16.80;85.00;;;;;;4179734;28;20048;-64
2022/12/31 10:34:26;;;;;;;2.95;1.13;;;16.90;84.30;;;;;;4186037;28;20047;-63
2022/12/31 10:37:13;;;;;;;2.58;1.20;;;17.10;83.70;;;;;;4181873;28;20044;-63
2022/12/31 10:40:10;;;;;;;1.52;1.40;;;17.10;83.30;;;;;;4182725;28;21727;-64
2022/12/31 10:43:22;;;;;;;4.00;2.03;;;17.20;83.00;;;;;;4186788;28;20060;-60
2022/12/31 10:46:44;;;;;;;1.90;1.27;;;17.20;82.90;;;;;;4181283;28;20109;-60
2022/12/31 10:49:57;;;;;;;4.30;1.50;;;17.20;82.80;;;;;;4181125;28;20178;-60
2022/12/31 10:53:17;;;;;;;1.95;1.65;;;17.20;83.00;;;;;;4188207;28;20463;-64
2022/12/31 10:56:35;;;;;;;3.17;2.72;;;17.30;82.80;;;;;;4178588;28;20102;-63
2022/12/31 10:59:48;;;;;;;3.88;0.80;;;17.40;82.50;;;;;;4177835;28;20076;-61
2022/12/31 11:03:11;;;;;;;2.95;1.77;;;17.40;82.20;;;;;;4184042;28;20056;-60
2022/12/31 11:06:25;;;;;;;5.60;3.03;;;17.40;82.20;;;;;;4176974;28;20171;-63
2022/12/31 11:09:44;;;;;;;8.95;4.68;;;17.40;82.30;;;;;;4175397;28;20407;-63
2022/12/31 11:12:54;;;;;;;4.30;1.70;;;17.50;82.20;;;;;;4179918;28;20714;-60
2022/12/31 11:16:04;;;;;;;6.30;2.72;;;17.50;82.10;;;;;;4170352;28;20063;-52
2022/12/31 11:18:56;;;;;;;4.65;2.17;;;17.50;82.00;;;;;;4183803;28;20056;-58
2022/12/31 11:21:57;;;;;;;4.72;1.80;;;17.50;82.10;;;;;;4189371;28;20139;-59
2022/12/31 11:24:54;;;;;;;3.13;2.10;;;17.60;82.30;;;;;;4176053;28;20097;-56
2022/12/31 11:27:48;;;;;;;2.97;2.10;;;17.60;81.90;;;;;;4173754;28;20051;-56
2022/12/31 11:30:36;;;;;;;5.15;1.67;;;17.70;81.90;;;;;;4174366;28;20220;-60
2022/12/31 11:33:31;;;;;;;5.68;2.10;;;17.70;81.90;;;;;;4167915;28;20056;-64
2022/12/31 11:36:24;;;;;;;5.80;2.00;;;17.60;81.80;;;;;;4181212;28;20178;-64
2022/12/31 11:39:34;;;;;;;7.90;1.92;;;17.60;81.80;;;;;;4182879;28;20067;-64
2022/12/31 11:42:21;;;;;;;3.97;1.55;;;17.60;82.20;;;;;;4177932;28;20090;-64
2022/12/31 11:45:13;;;;;;;7.00;4.47;;;17.50;82.20;;;;;;4185425;28;20047;-64
2022/12/31 11:48:04;;;;;;;4.75;1.75;;;17.50;82.10;;;;;;4178184;28;20185;-63
2022/12/31 11:51:24;;;;;;;5.60;2.65;;;17.50;82.40;;;;;;4187281;28;20074;-64
2022/12/31 11:54:30;;;;;;;3.72;1.40;;;17.50;82.50;;;;;;4174799;28;20055;-64
2022/12/31 11:57:19;;;;;;;6.18;2.67;;;17.40;82.70;;;;;;4185878;28;20075;-64
2022/12/31 12:00:13;;;;;;;3.55;1.70;;;17.40;82.80;;;;;;4191575;28;20063;-63
2022/12/31 12:02:59;;;;;;;4.05;1.55;;;17.30;83.10;;;;;;4178773;28;20138;-64
2022/12/31 12:05:40;;;;;;;1.65;1.13;;;17.30;83.40;;;;;;4181986;28;20052;-64
2022/12/31 12:08:23;;;;;;;3.80;1.13;;;17.20;83.70;;;;;;4183278;28;20506;-64
2022/12/31 12:11:08;;;;;;;2.00;1.25;;;17.10;84.00;;;;;;4174359;28;20051;-63
2022/12/31 12:13:49;;;;;;;2.17;1.23;;;17.10;84.40;;;;;;4181715;28;20059;-64
2022/12/31 12:16:30;;;;;;;2.00;1.25;;;17.00;84.60;;;;;;4174549;28;20403;-64
2022/12/31 12:19:18;;;;;;;1.65;0.60;;;17.00;85.00;;;;;;4182421;28;20190;-64
2022/12/31 12:22:09;;;;;;;3.95;0.77;;;16.90;85.20;;;;;;4175201;28;20399;-66
2022/12/31 12:24:57;;;;;;;2.35;1.20;;;16.90;85.60;;;;;;4180271;28;20059;-64
2022/12/31 12:27:38;;;;;;;2.15;1.13;;;16.80;85.70;;;;;;4177164;28;20494;-65
2022/12/31 12:30:23;;;;;;;3.47;1.15;;;16.80;86.40;;;;;;4181425;28;20427;-65
2022/12/31 12:33:04;;;;;;;1.98;1.05;;;16.80;86.40;;;;;;4174694;28;20483;-65
2022/12/31 12:35:46;;;;;;;1.80;1.15;;;16.80;86.50;;;;;;4172745;28;20118;-64
2022/12/31 12:38:26;;;;;;;3.92;1.25;;;16.70;86.60;;;;;;4174187;28;20056;-65
2022/12/31 12:41:12;;;;;;;5.53;1.20;;;16.70;86.80;;;;;;4179492;28;20048;-65
2022/12/31 12:44:02;;;;;;;5.70;1.58;;;16.70;86.90;;;;;;4181200;28;20056;-64
2022/12/31 12:46:46;;;;;;;0.90;0.80;;;16.70;87.20;;;;;;4188718;28;20063;-65
2022/12/31 12:49:31;;;;;;;2.58;1.23;;;16.60;87.20;;;;;;4176808;28;20048;-64
2022/12/31 12:52:43;;;;;;;6.43;2.65;;;16.60;87.40;;;;;;4188747;28;20200;-64
2022/12/31 12:55:32;;;;;;;2.63;1.00;;;16.50;87.60;;;;;;4174504;28;20055;-64
2022/12/31 12:58:24;;;;;;;6.53;1.63;;;16.50;87.60;;;;;;4177298;28;20459;-62
2022/12/31 13:01:16;;;;;;;4.60;1.35;;;16.50;87.80;;;;;;4192051;28;20067;-63
2022/12/31 13:04:43;;;;;;;3.55;1.02;;;16.50;87.90;;;;;;4174700;28;20122;-61
2022/12/31 13:07:37;;;;;;;2.83;1.30;;;16.40;88.10;;;;;;4123849;28;20049;-61
2022/12/31 13:10:32;;;;;;;3.45;0.90;;;16.40;88.00;;;;;;4123617;28;20096;-61
2022/12/31 13:13:26;;;;;;;2.72;0.93;;;16.40;88.20;;;;;;4174692;28;20056;-63
2022/12/31 13:16:15;;;;;;;3.35;1.27;;;16.40;88.30;;;;;;4194983;28;20067;-61
2022/12/31 13:19:02;;;;;;;3.55;1.67;;;16.30;88.30;;;;;;4190950;28;20052;-62
2022/12/31 13:21:53;;;;;;;4.03;1.10;;;16.30;88.50;;;;;;4174821;28;20067;-62
2022/12/31 13:24:51;;;;;;;2.38;1.33;;;16.30;88.60;;;;;;4174773;28;20048;-62
2022/12/31 13:27:36;;;;;;;7.70;1.52;;;16.30;88.70;;;;;;4174747;28;20078;-62
2022/12/31 13:30:21;;;;;;;3.53;1.08;;;16.30;88.80;;;;;;4178179;28;20129;-62
2022/12/31 13:33:07;;;;;;;4.45;1.40;;;16.30;88.90;;;;;;4178360;28;20151;-62
2022/12/31 13:35:51;;;;;;;1.10;1.00;;;16.20;88.90;;;;;;4193902;28;20047;-63
2022/12/31 13:38:36;;;;;;;23.00;16.92;;;16.20;89.00;;;;;;4194455;28;20051;-63
2022/12/31 13:41:23;;;;;;;6.75;1.30;;;16.20;89.20;;;;;;4194593;28;20055;-63
2022/12/31 13:44:16;;;;;;;7.43;1.73;;;16.20;89.20;;;;;;4177708;28;20465;-62
2022/12/31 13:47:03;;;;;;;4.03;1.10;;;16.20;89.30;;;;;;4177247;28;20768;-62
2022/12/31 13:49:48;;;;;;;3.92;1.30;;;16.20;89.50;;;;;;4178200;28;20130;-62
2022/12/31 13:52:34;;;;;;;4.45;1.00;;;16.20;89.60;;;;;;4177994;28;20060;-62
2022/12/31 13:55:20;;;;;;;4.95;1.83;;;16.20;89.70;;;;;;4201715;28;20536;-64
2022/12/31 13:58:06;;;;;;;3.20;1.10;;;16.10;89.70;;;;;;4210786;28;20059;-63
2022/12/31 14:00:53;;;;;;;3.50;0.98;;;16.10;89.70;;;;;;4200612;28;20038;-62
2022/12/31 14:03:45;;;;;;;6.88;1.40;;;16.10;89.80;;;;;;4177552;28;20495;-62
2022/12/31 14:06:32;;;;;;;3.40;1.92;;;16.10;90.00;;;;;;4188064;28;20055;-62
2022/12/31 14:09:20;;;;;;;5.35;3.17;;;16.10;90.00;;;;;;4194463;28;20047;-63
2022/12/31 14:12:24;;;;;;;4.72;1.17;;;16.10;90.10;;;;;;4194008;28;20060;-62
2022/12/31 14:15:15;;;;;;;2.90;0.80;;;16.10;90.10;;;;;;4182082;28;20051;-62
2022/12/31 14:18:04;;;;;;;2.50;0.90;;;16.10;90.50;;;;;;4193099;28;20044;-62
2022/12/31 14:20:48;;;;;;;3.53;1.27;;;16.10;90.10;;;;;;4195201;28;20400;-63
2022/12/31 14:23:39;;;;;;;3.50;2.30;;;16.10;90.20;;;;;;4193443;28;20079;-62
2022/12/31 14:26:27;;;;;;;2.38;1.05;;;16.10;90.20;;;;;;4193602;28;20129;-63
2022/12/31 14:29:18;;;;;;;2.05;0.77;;;16.10;90.30;;;;;;4176912;28;20493;-62
2022/12/31 14:32:24;;;;;;;6.18;4.20;;;16.10;90.30;;;;;;4176344;28;20060;-61
2022/12/31 14:35:30;;;;;;;3.70;0.75;;;16.10;90.20;;;;;;4200550;28;20047;-65
2022/12/31 14:38:24;;;;;;;0.80;0.70;;;16.20;90.20;;;;;;4193130;28;20059;-64
2022/12/31 14:41:21;;;;;;;1.25;0.45;;;16.20;90.10;;;;;;4193876;28;20054;-61
2022/12/31 14:44:14;;;;;;;3.17;0.90;;;16.20;90.00;;;;;;4193222;28;20463;-61
2022/12/31 14:47:11;;;;;;;1.38;0.93;;;16.20;90.00;;;;;;4204484;28;20055;-61
2022/12/31 14:49:59;;;;;;;1.90;0.90;;;16.20;90.00;;;;;;4209674;28;20170;-62